createdAt,value
2017-07-29T00:01:27.213Z,17.50
2017-07-29T00:03:54.656Z,17.40
2017-07-29T00:06:22.114Z,17.50
2017-07-29T00:08:49.547Z,17.40
2017-07-29T00:11:16.982Z,17.50
2017-07-29T00:13:44.411Z,17.50
2017-07-29T00:16:11.860Z,17.60
2017-07-29T00:18:39.326Z,17.60
2017-07-29T00:21:06.753Z,17.60
2017-07-29T00:23:34.176Z,17.50
2017-07-29T00:26:01.614Z,17.60
2017-07-29T00:28:29.034Z,17.50
2017-07-29T00:30:56.480Z,17.50
2017-07-29T00:33:24.562Z,17.50
2017-07-29T00:35:51.990Z,17.50
2017-07-29T00:38:19.405Z,17.60
2017-07-29T00:40:46.851Z,17.70
2017-07-29T00:43:14.291Z,17.80
2017-07-29T00:45:41.746Z,17.80
2017-07-29T00:48:09.170Z,17.80
2017-07-29T00:50:36.635Z,17.70
2017-07-29T00:53:04.058Z,17.70
2017-07-29T00:55:31.485Z,17.70
2017-07-29T00:57:58.916Z,17.80
2017-07-29T01:00:26.369Z,17.80
2017-07-29T01:02:53.804Z,17.70
2017-07-29T01:05:21.234Z,17.70
2017-07-29T01:07:48.670Z,17.70
2017-07-29T01:10:16.096Z,17.70
2017-07-29T01:12:43.520Z,17.70
2017-07-29T01:15:10.942Z,17.70
2017-07-29T01:17:38.395Z,17.80
2017-07-29T01:20:05.835Z,17.70
2017-07-29T01:22:33.274Z,17.70
2017-07-29T01:25:00.711Z,17.70
2017-07-29T01:27:28.168Z,17.70
2017-07-29T01:29:55.593Z,17.70
2017-07-29T01:32:23.019Z,17.70
2017-07-29T01:34:50.459Z,17.70
2017-07-29T01:37:17.893Z,17.70
2017-07-29T01:39:45.332Z,17.70
2017-07-29T01:42:12.762Z,17.70
2017-07-29T01:44:40.195Z,17.70
2017-07-29T01:47:07.621Z,17.60
2017-07-29T01:49:35.059Z,17.50
2017-07-29T01:52:02.482Z,17.40
2017-07-29T01:54:29.923Z,17.40
2017-07-29T01:56:57.352Z,17.50
2017-07-29T01:59:24.790Z,17.50
2017-07-29T02:01:52.226Z,17.50
2017-07-29T02:04:19.660Z,17.40
2017-07-29T02:06:47.089Z,17.50
2017-07-29T02:09:14.514Z,17.50
2017-07-29T02:11:41.950Z,17.40
2017-07-29T02:14:09.392Z,15.30
2017-07-29T02:16:36.842Z,17.30
2017-07-29T02:19:04.283Z,17.30
2017-07-29T02:21:31.717Z,17.10
2017-07-29T02:23:59.145Z,17.10
2017-07-29T02:26:26.600Z,17.10
2017-07-29T02:28:54.026Z,17.10
2017-07-29T02:31:21.458Z,17.20
2017-07-29T02:33:48.885Z,17.30
2017-07-29T02:36:16.323Z,17.30
2017-07-29T02:38:43.778Z,17.30
2017-07-29T02:41:11.204Z,17.30
2017-07-29T02:43:38.635Z,17.20
2017-07-29T02:46:06.062Z,17.30
2017-07-29T02:48:33.491Z,17.20
2017-07-29T02:51:00.934Z,17.20
2017-07-29T02:53:28.371Z,17.20
2017-07-29T02:55:55.799Z,17.20
2017-07-29T02:58:23.256Z,17.20
2017-07-29T03:00:50.690Z,17.30
2017-07-29T03:03:18.131Z,17.40
2017-07-29T03:05:45.554Z,17.40
2017-07-29T03:08:12.983Z,17.50
2017-07-29T03:10:40.436Z,17.50
2017-07-29T03:13:07.865Z,17.50
2017-07-29T03:15:35.302Z,17.40
2017-07-29T03:18:02.733Z,17.50
2017-07-29T03:20:30.165Z,17.60
2017-07-29T03:22:57.631Z,17.50
2017-07-29T03:25:25.058Z,17.40
2017-07-29T03:27:52.499Z,17.40
2017-07-29T03:30:19.923Z,17.40
2017-07-29T03:32:47.358Z,17.40
2017-07-29T03:35:14.800Z,17.40
2017-07-29T03:37:42.217Z,17.30
2017-07-29T03:40:09.663Z,17.30
2017-07-29T03:42:37.103Z,17.30
2017-07-29T03:45:04.565Z,17.20
2017-07-29T03:47:31.993Z,17.20
2017-07-29T03:49:59.419Z,17.20
2017-07-29T03:52:26.855Z,17.10
2017-07-29T03:54:54.298Z,17.00
2017-07-29T03:57:21.726Z,16.90
2017-07-29T03:59:49.158Z,16.90
2017-07-29T04:02:16.604Z,17.00
2017-07-29T04:04:44.042Z,17.00
2017-07-29T04:07:11.478Z,17.00
2017-07-29T04:09:38.954Z,17.00
2017-07-29T04:12:06.395Z,17.10
2017-07-29T04:14:33.827Z,17.10
2017-07-29T04:17:01.254Z,17.00
2017-07-29T04:19:28.688Z,16.90
2017-07-29T04:21:56.115Z,16.90
2017-07-29T04:24:23.550Z,16.90
2017-07-29T04:26:50.999Z,16.90
2017-07-29T04:29:18.438Z,16.80
2017-07-29T04:31:45.878Z,16.90
2017-07-29T04:34:13.322Z,16.80
2017-07-29T04:36:40.754Z,16.90
2017-07-29T04:39:08.178Z,16.90
2017-07-29T04:41:35.632Z,17.00
2017-07-29T04:44:03.058Z,17.10
2017-07-29T04:46:30.497Z,17.30
2017-07-29T04:48:57.919Z,17.30
2017-07-29T04:51:25.347Z,17.20
2017-07-29T04:53:52.774Z,17.30
2017-07-29T04:56:20.226Z,17.30
2017-07-29T04:58:47.672Z,17.20
2017-07-29T05:01:15.133Z,17.20
2017-07-29T05:03:42.558Z,17.10
2017-07-29T05:06:09.981Z,17.00
2017-07-29T05:08:37.422Z,16.90
2017-07-29T05:11:04.850Z,16.90
2017-07-29T05:13:32.283Z,16.80
2017-07-29T05:15:59.709Z,16.70
2017-07-29T05:18:27.161Z,16.80
2017-07-29T05:20:54.600Z,16.80
2017-07-29T05:23:22.067Z,16.80
2017-07-29T05:25:49.481Z,16.80
2017-07-29T05:28:16.923Z,16.80
2017-07-29T05:30:44.351Z,16.80
2017-07-29T05:33:11.799Z,16.80
2017-07-29T05:35:39.226Z,16.80
2017-07-29T05:38:06.692Z,16.80
2017-07-29T05:40:34.114Z,16.80
2017-07-29T05:43:01.555Z,16.90
2017-07-29T05:45:28.982Z,16.80
2017-07-29T05:47:56.419Z,16.90
2017-07-29T05:50:23.855Z,16.80
2017-07-29T05:52:51.321Z,16.70
2017-07-29T05:55:18.762Z,16.70
2017-07-29T05:57:46.194Z,16.80
2017-07-29T06:00:13.648Z,16.80
2017-07-29T06:02:41.058Z,16.90
2017-07-29T06:05:08.507Z,16.80
2017-07-29T06:07:35.960Z,16.70
2017-07-29T06:10:03.382Z,16.80
2017-07-29T06:12:30.821Z,16.70
2017-07-29T06:14:58.249Z,16.70
2017-07-29T06:17:25.686Z,16.70
2017-07-29T06:19:53.107Z,16.70
2017-07-29T06:22:20.553Z,16.90
2017-07-29T06:24:48.015Z,16.90
2017-07-29T06:27:15.454Z,16.90
2017-07-29T06:29:42.893Z,17.00
2017-07-29T06:32:10.330Z,17.00
2017-07-29T06:34:37.761Z,17.00
2017-07-29T06:37:05.186Z,17.00
2017-07-29T06:39:32.613Z,16.90
2017-07-29T06:42:00.060Z,17.00
2017-07-29T06:44:27.499Z,17.00
2017-07-29T06:46:54.933Z,17.10
2017-07-29T06:49:22.370Z,17.00
2017-07-29T06:51:49.807Z,17.10
2017-07-29T06:54:17.267Z,17.20
2017-07-29T06:56:44.710Z,17.30
2017-07-29T06:59:12.142Z,17.40
2017-07-29T07:01:39.589Z,17.40
2017-07-29T07:04:07.027Z,17.50
2017-07-29T07:06:34.469Z,17.50
2017-07-29T07:09:01.886Z,17.50
2017-07-29T07:11:29.343Z,17.50
2017-07-29T07:13:56.779Z,17.40
2017-07-29T07:16:24.210Z,17.60
2017-07-29T07:18:51.647Z,17.60
2017-07-29T07:21:19.092Z,17.50
2017-07-29T07:23:46.527Z,17.60
2017-07-29T07:26:13.970Z,17.70
2017-07-29T07:28:41.419Z,17.60
2017-07-29T07:31:08.854Z,17.70
2017-07-29T07:33:36.294Z,17.70
2017-07-29T07:36:03.713Z,17.80
2017-07-29T07:38:31.158Z,17.90
2017-07-29T07:40:58.603Z,18.10
2017-07-29T07:43:26.054Z,18.10
2017-07-29T07:45:53.470Z,18.20
2017-07-29T07:48:20.935Z,18.30
2017-07-29T07:50:48.369Z,18.40
2017-07-29T07:53:15.817Z,18.40
2017-07-29T07:55:43.273Z,18.40
2017-07-29T07:58:10.715Z,18.50
2017-07-29T08:00:38.146Z,18.60
2017-07-29T08:03:05.582Z,18.60
2017-07-29T08:05:33.007Z,18.60
2017-07-29T08:08:00.442Z,18.70
2017-07-29T08:10:27.912Z,18.60
2017-07-29T08:12:55.323Z,18.40
2017-07-29T08:15:22.756Z,18.30
2017-07-29T08:17:50.201Z,18.20
2017-07-29T08:20:17.664Z,17.90
2017-07-29T08:22:45.082Z,17.80
2017-07-29T08:25:12.522Z,17.70
2017-07-29T08:27:39.946Z,17.60
2017-07-29T08:30:07.382Z,17.60
2017-07-29T08:32:34.821Z,17.80
2017-07-29T08:35:02.280Z,17.80
2017-07-29T08:37:29.700Z,17.80
2017-07-29T08:39:57.125Z,17.80
2017-07-29T08:42:24.578Z,17.80
2017-07-29T08:44:52.021Z,17.70
2017-07-29T08:47:19.454Z,17.80
2017-07-29T08:49:46.882Z,17.80
2017-07-29T08:52:14.319Z,17.80
2017-07-29T08:54:41.745Z,17.90
2017-07-29T08:57:09.214Z,18.00
2017-07-29T08:59:36.642Z,18.20
2017-07-29T09:02:04.099Z,18.20
2017-07-29T09:04:31.540Z,18.20
2017-07-29T09:06:58.982Z,18.30
2017-07-29T09:09:26.431Z,18.30
2017-07-29T09:11:53.849Z,18.50
2017-07-29T09:14:21.273Z,18.50
2017-07-29T09:16:48.752Z,18.60
2017-07-29T09:19:16.159Z,18.60
2017-07-29T09:24:34.219Z,18.60
2017-07-29T09:27:01.686Z,18.70
2017-07-29T09:29:29.147Z,18.70
2017-07-29T09:31:56.583Z,18.80
2017-07-29T09:34:24.014Z,18.90
2017-07-29T09:36:51.489Z,18.90
2017-07-29T09:39:18.918Z,19.10
2017-07-29T09:41:46.403Z,19.10
2017-07-29T09:44:13.855Z,19.20
2017-07-29T09:46:41.290Z,19.20
2017-07-29T09:49:08.724Z,19.30
2017-07-29T09:51:36.147Z,19.40
2017-07-29T09:54:03.578Z,19.40
2017-07-29T09:56:31.018Z,19.40
2017-07-29T09:58:58.445Z,19.40
2017-07-29T10:01:25.882Z,19.50
2017-07-29T10:03:53.331Z,19.70
2017-07-29T10:06:20.773Z,19.80
2017-07-29T10:08:48.205Z,19.70
2017-07-29T10:11:15.631Z,19.80
2017-07-29T10:13:43.093Z,19.90
2017-07-29T10:16:10.530Z,20.10
2017-07-29T10:18:37.981Z,20.00
2017-07-29T10:21:05.394Z,20.10
2017-07-29T10:23:32.832Z,20.10
2017-07-29T10:26:00.260Z,20.10
2017-07-29T10:28:27.690Z,20.00
2017-07-29T10:30:55.125Z,19.90
2017-07-29T10:33:22.551Z,19.80
2017-07-29T10:35:49.999Z,19.70
2017-07-29T10:38:17.426Z,19.70
2017-07-29T10:40:44.854Z,19.90
2017-07-29T10:43:12.286Z,19.90
2017-07-29T10:45:39.710Z,19.80
2017-07-29T10:48:07.135Z,19.70
2017-07-29T10:50:34.575Z,19.60
2017-07-29T10:53:02.009Z,19.60
2017-07-29T10:55:29.443Z,19.70
2017-07-29T10:57:56.899Z,19.80
2017-07-29T11:00:24.342Z,19.90
2017-07-29T11:02:51.771Z,19.80
2017-07-29T11:05:19.194Z,19.70
2017-07-29T11:07:46.626Z,19.70
2017-07-29T11:10:14.068Z,19.60
2017-07-29T11:12:41.482Z,19.60
2017-07-29T11:15:08.958Z,19.40
2017-07-29T11:17:36.399Z,19.50
2017-07-29T11:20:03.835Z,19.60
2017-07-29T11:22:31.263Z,19.70
2017-07-29T11:24:58.690Z,19.70
2017-07-29T11:27:26.114Z,19.90
2017-07-29T11:29:53.558Z,20.00
2017-07-29T11:32:20.994Z,20.20
2017-07-29T11:34:48.427Z,20.30
2017-07-29T11:37:15.866Z,20.30
2017-07-29T11:39:43.295Z,20.40
2017-07-29T11:42:10.722Z,20.40
2017-07-29T11:44:38.145Z,20.50
2017-07-29T11:47:05.584Z,20.50
2017-07-29T11:49:33.028Z,20.60
2017-07-29T11:52:01.212Z,20.60
2017-07-29T11:54:28.638Z,20.80
2017-07-29T11:56:56.058Z,20.80
2017-07-29T11:59:23.535Z,20.80
2017-07-29T12:01:50.979Z,20.80
2017-07-29T12:04:18.409Z,20.80
2017-07-29T12:06:45.872Z,20.80
2017-07-29T12:09:13.290Z,20.80
2017-07-29T12:11:40.734Z,21.00
2017-07-29T12:14:08.191Z,21.10
2017-07-29T12:16:35.619Z,21.30
2017-07-29T12:19:03.054Z,21.60
2017-07-29T12:21:30.491Z,21.70
2017-07-29T12:23:57.929Z,21.70
2017-07-29T12:26:25.359Z,21.80
2017-07-29T12:28:52.792Z,21.60
2017-07-29T12:31:20.223Z,21.60
2017-07-29T12:33:47.656Z,21.20
2017-07-29T12:36:15.087Z,21.20
2017-07-29T12:38:42.514Z,21.20
2017-07-29T12:41:09.950Z,21.00
2017-07-29T12:43:37.429Z,20.60
2017-07-29T12:46:04.867Z,20.30
2017-07-29T12:48:32.302Z,19.80
2017-07-29T12:50:59.760Z,19.50
2017-07-29T12:53:27.223Z,19.30
2017-07-29T12:55:54.669Z,19.40
2017-07-29T12:58:22.136Z,19.40
2017-07-29T13:00:49.585Z,19.50
2017-07-29T13:03:17.022Z,19.60
2017-07-29T13:05:44.455Z,19.80
2017-07-29T13:08:11.914Z,19.90
2017-07-29T13:10:39.346Z,19.90
2017-07-29T13:13:06.799Z,19.90
2017-07-29T13:15:34.238Z,19.80
2017-07-29T13:18:01.691Z,19.50
2017-07-29T13:20:29.136Z,19.40
2017-07-29T13:22:56.571Z,19.30
2017-07-29T13:25:24.016Z,19.10
2017-07-29T13:27:51.454Z,18.90
2017-07-29T13:30:18.887Z,18.90
2017-07-29T13:32:46.319Z,18.80
2017-07-29T13:35:13.746Z,18.80
2017-07-29T13:37:41.175Z,18.80
2017-07-29T13:40:08.619Z,18.80
2017-07-29T13:42:36.066Z,18.90
2017-07-29T13:45:03.523Z,18.90
2017-07-29T13:47:30.951Z,18.80
2017-07-29T13:49:58.373Z,18.90
2017-07-29T13:52:25.828Z,18.90
2017-07-29T13:54:53.282Z,18.90
2017-07-29T13:57:20.710Z,18.70
2017-07-29T13:59:48.152Z,18.60
2017-07-29T14:02:15.580Z,18.60
2017-07-29T14:04:43.006Z,18.60
2017-07-29T14:07:10.454Z,18.70
2017-07-29T14:09:37.885Z,18.90
2017-07-29T14:12:05.335Z,19.00
2017-07-29T14:14:32.770Z,19.10
2017-07-29T14:17:00.199Z,19.20
2017-07-29T14:19:27.631Z,19.40
2017-07-29T14:21:55.067Z,19.50
2017-07-29T14:24:22.512Z,19.60
2017-07-29T14:26:49.955Z,19.50
2017-07-29T14:29:17.389Z,19.60
2017-07-29T14:31:44.834Z,19.50
2017-07-29T14:34:12.287Z,19.30
2017-07-29T14:36:39.724Z,19.30
2017-07-29T14:39:07.192Z,19.30
2017-07-29T14:41:34.638Z,19.40
2017-07-29T14:44:02.067Z,19.60
2017-07-29T14:46:29.500Z,19.70
2017-07-29T14:48:56.951Z,19.90
2017-07-29T14:51:24.392Z,19.90
2017-07-29T14:53:51.818Z,20.00
2017-07-29T14:56:19.287Z,20.10
2017-07-29T14:58:46.715Z,20.30
2017-07-29T15:01:14.147Z,20.60
2017-07-29T15:03:41.603Z,20.80
2017-07-29T15:06:09.028Z,20.70
2017-07-29T15:08:36.474Z,20.80
2017-07-29T15:11:03.902Z,21.00
2017-07-29T15:13:31.335Z,21.30
2017-07-29T15:15:58.766Z,21.60
2017-07-29T15:18:26.207Z,21.80
2017-07-29T15:20:53.646Z,21.90
2017-07-29T15:23:21.070Z,22.10
2017-07-29T15:25:48.511Z,22.30
2017-07-29T15:28:15.934Z,22.80
2017-07-29T15:30:43.374Z,23.20
2017-07-29T15:33:10.817Z,23.70
2017-07-29T15:35:38.234Z,24.50
2017-07-29T15:38:05.671Z,25.10
2017-07-29T15:40:33.114Z,25.20
2017-07-29T15:43:00.601Z,25.50
2017-07-29T15:45:28.033Z,26.00
2017-07-29T15:47:55.475Z,26.00
2017-07-29T15:50:22.936Z,25.80
2017-07-29T15:52:50.378Z,25.40
2017-07-29T15:55:18.261Z,25.20
2017-07-29T15:57:46.158Z,25.60
2017-07-29T16:00:13.970Z,25.60
2017-07-29T16:02:41.953Z,25.40
2017-07-29T16:05:09.858Z,26.00
2017-07-29T16:07:37.751Z,26.90
2017-07-29T16:10:05.609Z,26.50
2017-07-29T16:12:33.070Z,26.10
2017-07-29T16:15:00.514Z,26.50
2017-07-29T16:17:28.406Z,26.40
2017-07-29T16:19:56.253Z,26.20
2017-07-29T16:22:24.110Z,26.00
2017-07-29T16:24:51.640Z,25.90
2017-07-29T16:27:19.529Z,26.30
2017-07-29T16:29:47.367Z,26.50
2017-07-29T16:32:15.228Z,27.00
2017-07-29T16:34:43.193Z,26.50
2017-07-29T16:37:11.101Z,26.40
2017-07-29T16:39:38.886Z,26.60
2017-07-29T16:42:06.857Z,26.90
2017-07-29T16:44:34.632Z,27.00
2017-07-29T16:47:02.398Z,26.70
2017-07-29T16:49:30.209Z,26.40
2017-07-29T16:51:57.691Z,26.00
2017-07-29T16:54:25.506Z,25.90
2017-07-29T16:56:53.437Z,25.30
2017-07-29T16:59:21.382Z,24.80
2017-07-29T17:01:49.140Z,24.50
2017-07-29T17:04:16.682Z,24.10
2017-07-29T17:06:44.403Z,23.70
2017-07-29T17:09:12.418Z,23.30
2017-07-29T17:11:40.343Z,23.10
2017-07-29T17:14:07.835Z,23.00
2017-07-29T17:16:35.698Z,22.80
2017-07-29T17:19:03.581Z,22.70
2017-07-29T17:21:31.413Z,22.70
2017-07-29T17:23:59.214Z,22.70
2017-07-29T17:26:27.185Z,22.60
2017-07-29T17:28:54.671Z,22.40
2017-07-29T17:31:22.107Z,22.40
2017-07-29T17:33:49.538Z,22.30
2017-07-29T17:36:16.983Z,22.20
2017-07-29T17:38:44.426Z,22.20
2017-07-29T17:41:11.861Z,22.30
2017-07-29T17:43:39.287Z,22.30
2017-07-29T17:46:06.713Z,22.40
2017-07-29T17:48:34.160Z,22.30
2017-07-29T17:51:01.587Z,22.40
2017-07-29T17:53:29.022Z,22.50
2017-07-29T17:55:56.454Z,22.60
2017-07-29T17:58:23.901Z,22.50
2017-07-29T18:00:51.327Z,22.60
2017-07-29T18:03:18.766Z,22.50
2017-07-29T18:05:46.219Z,22.30
2017-07-29T18:08:13.684Z,22.20
2017-07-29T18:10:41.094Z,22.20
2017-07-29T18:13:08.531Z,21.80
2017-07-29T18:15:35.959Z,21.70
2017-07-29T18:18:03.392Z,21.60
2017-07-29T18:20:30.825Z,21.50
2017-07-29T18:22:58.254Z,21.50
2017-07-29T18:25:25.697Z,21.40
2017-07-29T18:27:53.127Z,21.30
2017-07-29T18:30:20.567Z,21.30
2017-07-29T18:32:47.990Z,21.20
2017-07-29T18:35:15.427Z,21.30
2017-07-29T18:37:42.884Z,21.20
2017-07-29T18:40:10.316Z,21.30
2017-07-29T18:42:37.747Z,21.30
2017-07-29T18:45:05.171Z,21.30
2017-07-29T18:47:32.603Z,21.30
2017-07-29T18:50:00.033Z,21.20
2017-07-29T18:52:27.471Z,21.30
2017-07-29T18:54:54.928Z,21.20
2017-07-29T18:57:22.396Z,21.20
2017-07-29T18:59:49.819Z,21.20
2017-07-29T19:02:17.267Z,21.20
2017-07-29T19:04:44.845Z,21.30
2017-07-29T19:07:12.271Z,21.50
2017-07-29T19:09:39.723Z,21.40
2017-07-29T19:12:07.162Z,21.30
2017-07-29T19:14:34.607Z,21.30
2017-07-29T19:17:02.047Z,21.40
2017-07-29T19:19:29.485Z,21.40
2017-07-29T19:21:56.924Z,21.50
2017-07-29T19:24:24.358Z,21.30
2017-07-29T19:26:51.791Z,21.20
2017-07-29T19:29:19.222Z,21.00
2017-07-29T19:31:46.662Z,22.90
2017-07-29T19:34:14.115Z,20.80
2017-07-29T19:36:41.541Z,20.70
2017-07-29T19:39:08.986Z,20.60
2017-07-29T19:41:36.432Z,20.60
2017-07-29T19:44:03.862Z,22.60
2017-07-29T19:46:31.290Z,20.80
2017-07-29T19:48:58.723Z,20.80
2017-07-29T19:51:26.166Z,20.90
2017-07-29T19:53:53.607Z,21.00
2017-07-29T19:56:21.030Z,21.10
2017-07-29T19:58:48.460Z,21.10
2017-07-29T20:01:15.906Z,20.90
2017-07-29T20:03:43.342Z,20.90
2017-07-29T20:06:10.778Z,20.90
2017-07-29T20:08:38.209Z,20.80
2017-07-29T20:11:05.655Z,20.80
2017-07-29T20:13:33.121Z,20.80
2017-07-29T20:16:00.567Z,20.90
2017-07-29T20:18:27.987Z,20.90
2017-07-29T20:20:55.464Z,20.90
2017-07-29T20:23:22.890Z,21.10
2017-07-29T20:25:50.334Z,21.20
2017-07-29T20:28:17.778Z,21.10
2017-07-29T20:30:45.218Z,21.00
2017-07-29T20:33:12.654Z,21.10
2017-07-29T20:35:40.101Z,20.90
2017-07-29T20:38:07.535Z,20.90
2017-07-29T20:40:34.974Z,20.90
2017-07-29T20:43:02.402Z,20.80
2017-07-29T20:45:29.838Z,20.60
2017-07-29T20:47:57.275Z,20.60
2017-07-29T20:50:24.710Z,20.70
2017-07-29T20:52:52.169Z,20.80
2017-07-29T20:55:19.607Z,20.90
2017-07-29T20:57:47.047Z,21.00
2017-07-29T21:00:14.483Z,20.90
2017-07-29T21:02:41.920Z,20.90
2017-07-29T21:05:09.351Z,20.90
2017-07-29T21:07:36.831Z,20.90
2017-07-29T21:10:04.254Z,20.90
2017-07-29T21:12:31.694Z,20.90
2017-07-29T21:14:59.127Z,20.90
2017-07-29T21:17:26.559Z,20.90
2017-07-29T21:19:53.992Z,20.90
2017-07-29T21:22:21.450Z,20.90
2017-07-29T21:24:48.883Z,20.80
2017-07-29T21:27:16.330Z,20.70
2017-07-29T21:29:43.761Z,20.70
2017-07-29T21:32:11.197Z,20.50
2017-07-29T21:34:38.617Z,20.40
2017-07-29T21:37:06.048Z,20.30
2017-07-29T21:39:33.479Z,20.20
2017-07-29T21:42:00.902Z,20.10
2017-07-29T21:44:28.342Z,20.20
2017-07-29T21:46:55.770Z,20.20
2017-07-29T21:49:23.204Z,20.10
2017-07-29T21:51:50.637Z,20.10
2017-07-29T21:54:18.065Z,20.10
2017-07-29T21:56:45.495Z,20.10
2017-07-29T21:59:12.930Z,20.00
2017-07-29T22:01:40.358Z,20.00
2017-07-29T22:04:07.797Z,19.90
2017-07-29T22:06:35.228Z,19.90
2017-07-29T22:09:02.653Z,19.80
2017-07-29T22:11:30.130Z,19.80
2017-07-29T22:13:57.564Z,19.70
2017-07-29T22:16:24.990Z,19.50
2017-07-29T22:18:52.446Z,19.70
2017-07-29T22:21:19.919Z,19.70
2017-07-29T22:23:47.355Z,19.70
2017-07-29T22:26:15.783Z,19.80
2017-07-29T22:28:43.216Z,19.90
2017-07-29T22:31:10.637Z,20.00
2017-07-29T22:33:38.074Z,20.00
2017-07-29T22:36:05.509Z,20.00
2017-07-29T22:38:32.965Z,20.00
2017-07-29T22:41:00.391Z,19.90
2017-07-29T22:43:27.851Z,19.80
2017-07-29T22:45:55.286Z,19.80
2017-07-29T22:48:22.726Z,19.80
2017-07-29T22:50:50.196Z,19.80
2017-07-29T22:53:17.628Z,19.90
2017-07-29T22:55:46.781Z,20.00
2017-07-29T22:58:14.935Z,19.90
2017-07-29T23:00:42.381Z,19.80
2017-07-29T23:03:09.846Z,19.80
2017-07-29T23:05:37.314Z,19.80
2017-07-29T23:08:04.746Z,19.70
2017-07-29T23:10:32.223Z,19.70
2017-07-29T23:12:59.665Z,19.60
2017-07-29T23:15:27.100Z,19.50
2017-07-29T23:17:54.538Z,19.50
2017-07-29T23:20:21.986Z,19.50
2017-07-29T23:22:49.425Z,19.50
2017-07-29T23:25:16.855Z,19.50
2017-07-29T23:27:44.294Z,19.60
2017-07-29T23:30:11.722Z,19.50
2017-07-29T23:32:39.162Z,19.50
2017-07-29T23:35:06.594Z,19.40
2017-07-29T23:37:34.031Z,19.40
2017-07-29T23:40:01.461Z,19.40
2017-07-29T23:42:28.906Z,19.40
2017-07-29T23:44:56.436Z,19.40
2017-07-29T23:47:23.846Z,19.40
2017-07-29T23:49:51.282Z,17.50
2017-07-29T23:52:18.715Z,19.30
2017-07-29T23:54:46.232Z,19.40
2017-07-29T23:57:13.675Z,19.50
2017-07-29T23:59:41.107Z,19.50
